Avondale, Kentucky
Current Conditions -  °F | °C
As of 7:53 AM on Wednesday 28 Jan 2015 (Local Time) from KPAH Reporting Station
Haze Haze  
Wind Chill: 30°   Ceiling: Unl
Heat Index: 30°   Visibility: 3mi
Dew Point: 26°   Wind: 3mph
Humidity: 85%   Direction: 90°E
Pressure: 30.3"   Gusts: NA
Location:  37.0331°N, 88.716°W
Report Text: KPAH 281353Z 09003KT 3SM BR CLR M01/M03 A3030 RMK AO2 SLP263 T10111033
Loading
Personal Weather Stations






























Interactive Weather Map New forecast layout! Learn more

10-Day Weather Forecast

Advertisements
Track Severe Weather on mobile